Time;durP1;ratioP1;P1;durP2;ratioP2;P2;SDS_P1;SDS_P2;PMS_P1;PMS_P2;Temp;Humidity;BMP_temperature;BMP_pressure;BME280_temperature;BME280_humidity;BME280_pressure;Samples;Min_cycle;Max_cycle;Signal;HPM_P1;HPM_P2
2022/04/20 00:00:48;;;;;;;;;;;;;;;-2.17;84.48;98413.03;3222172;23;19924;-77
2022/04/20 00:02:03;;;;;;;;;;;;;;;-2.22;84.70;98413.78;3222559;23;19928;-78
2022/04/20 00:03:19;;;;;;;;;;;;;;;-2.24;85.32;98415.44;3222798;22;20377;-78
2022/04/20 00:04:34;;;;;;;;;;;;;;;-2.32;85.74;98412.69;3223108;22;19924;-78
2022/04/20 00:05:50;;;;;;;;;;;;;;;-2.31;86.85;98406.75;3223110;22;20240;-79
2022/04/20 00:07:05;;;;;;;;;;;;;;;-2.31;87.11;98409.31;3222976;22;19923;-77
2022/04/20 00:08:21;;;;;;;;;;;;;;;-2.31;85.71;98406.75;3223349;22;19930;-79
2022/04/20 00:09:36;;;;;;;;;;;;;;;-2.36;85.33;98400.66;3223402;23;19924;-77
2022/04/20 00:10:52;;;;;;;;;;;;;;;-2.35;85.09;98408.34;3222994;23;19923;-78
2022/04/20 00:12:07;;;;;;;;;;;;;;;-2.35;84.76;98412.63;3222772;22;19927;-77
2022/04/20 00:13:23;;;;;;;;;;;;;;;-2.35;84.67;98416.06;3223040;22;19926;-77
2022/04/20 00:14:38;;;;;;;;;;;;;;;-2.35;85.02;98415.19;3223388;22;19934;-77
2022/04/20 00:15:54;;;;;;;;;;;;;;;-2.36;85.23;98418.59;3222495;22;19931;-80
2022/04/20 00:17:09;;;;;;;;;;;;;;;-2.41;84.50;98416.78;3223183;23;19929;-78
2022/04/20 00:18:25;;;;;;;;;;;;;;;-2.47;84.10;98416.63;3223186;23;19923;-78
2022/04/20 00:19:40;;;;;;;;;;;;;;;-2.45;84.14;98417.53;3222879;23;19927;-79
2022/04/20 00:20:56;;;;;;;;;;;;;;;-2.39;86.13;98424.50;3223109;23;20005;-77
2022/04/20 00:22:11;;;;;;;;;;;;;;;-2.33;86.83;98419.50;3223128;22;19995;-79
2022/04/20 00:23:27;;;;;;;;;;;;;;;-2.28;87.43;98409.38;3222490;23;19923;-77
2022/04/20 00:24:42;;;;;;;;;;;;;;;-2.21;87.89;98416.38;3222636;23;19923;-78
2022/04/20 00:25:58;;;;;;;;;;;;;;;-2.15;88.01;98421.63;3222714;23;19927;-78
2022/04/20 00:27:13;;;;;;;;;;;;;;;-2.11;86.75;98421.69;3223197;22;19928;-78
2022/04/20 00:28:29;;;;;;;;;;;;;;;-2.20;86.91;98420.69;3223234;23;19950;-77
2022/04/20 00:29:44;;;;;;;;;;;;;;;-2.28;86.07;98419.63;3222859;23;19973;-78
2022/04/20 00:30:59;;;;;;;;;;;;;;;-2.33;86.00;98423.78;3222807;23;20296;-77
2022/04/20 00:32:15;;;;;;;;;;;;;;;-2.43;86.07;98415.03;3223504;23;19919;-77
2022/04/20 00:33:30;;;;;;;;;;;;;;;-2.46;86.02;98410.69;3222934;22;19919;-78
2022/04/20 00:34:46;;;;;;;;;;;;;;;-2.45;86.11;98412.41;3221517;23;19920;-77
2022/04/20 00:36:02;;;;;;;;;;;;;;;-2.42;85.63;98414.19;3221959;23;19924;-78
2022/04/20 00:37:17;;;;;;;;;;;;;;;-2.44;84.76;98411.56;3223175;22;20250;-78
2022/04/20 00:38:34;;;;;;;;;;;;;;;-2.47;84.49;98418.31;3223355;22;20002;-78
2022/04/20 00:39:49;;;;;;;;;;;;;;;-2.47;84.58;98416.63;3223222;22;20262;-79
2022/04/20 00:41:05;;;;;;;;;;;;;;;-2.49;85.27;98423.44;3223171;22;20082;-79
2022/04/20 00:42:22;;;;;;;;;;;;;;;-2.54;84.98;98417.31;3223236;22;19923;-78
2022/04/20 00:43:38;;;;;;;;;;;;;;;-2.56;85.73;98416.41;3223125;22;19923;-79
2022/04/20 00:44:54;;;;;;;;;;;;;;;-2.52;85.56;98417.34;3223019;22;19930;-78
2022/04/20 00:46:10;;;;;;;;;;;;;;;-2.55;85.48;98415.56;3223394;22;20338;-78
2022/04/20 00:47:27;;;;;;;;;;;;;;;-2.52;85.35;98418.22;3223041;22;19926;-78
2022/04/20 00:48:43;;;;;;;;;;;;;;;-2.50;85.05;98414.00;3222945;22;19939;-79
2022/04/20 00:49:59;;;;;;;;;;;;;;;-2.50;85.88;98413.13;3223236;23;19950;-78
2022/04/20 00:51:14;;;;;;;;;;;;;;;-2.61;85.92;98418.00;3223468;22;20269;-78
2022/04/20 00:52:30;;;;;;;;;;;;;;;-2.70;86.39;98419.50;3223100;22;20244;-78
2022/04/20 00:53:45;;;;;;;;;;;;;;;-2.74;86.59;98419.38;3222819;23;19928;-78
2022/04/20 00:55:01;;;;;;;;;;;;;;;-2.77;86.78;98414.19;3222979;23;20343;-80
2022/04/20 00:56:16;;;;;;;;;;;;;;;-2.76;86.25;98419.38;3223337;22;19923;-77
2022/04/20 00:57:32;;;;;;;;;;;;;;;-2.75;86.19;98415.97;3223371;23;19919;-78
2022/04/20 00:58:47;;;;;;;;;;;;;;;-2.73;85.60;98423.69;3223578;22;19927;-78
2022/04/20 01:00:04;;;;;;;;;;;;;;;-2.71;85.08;98409.22;3223571;23;20413;-81
2022/04/20 01:01:20;;;;;;;;;;;;;;;-2.73;84.64;98406.63;3223901;22;19927;-77
2022/04/20 01:02:35;;;;;;;;;;;;;;;-2.80;84.51;98407.28;3224213;22;20331;-77
2022/04/20 01:03:50;;;;;;;;;;;;;;;-2.92;85.32;98414.69;3224244;22;19924;-78
2022/04/20 01:05:06;;;;;;;;;;;;;;;-2.98;85.75;98408.56;3224279;22;19924;-78
2022/04/20 01:06:21;;;;;;;;;;;;;;;-2.98;85.94;98416.25;3224039;23;19953;-79
2022/04/20 01:07:37;;;;;;;;;;;;;;;-2.98;85.44;98405.16;3223921;23;19927;-80
2022/04/20 01:08:52;;;;;;;;;;;;;;;-3.00;84.64;98402.53;3223910;22;19923;-78
2022/04/20 01:10:08;;;;;;;;;;;;;;;-3.06;84.41;98399.84;3223612;22;20335;-78
2022/04/20 01:11:25;;;;;;;;;;;;;;;-2.89;83.87;98395.13;3224036;23;20534;-78
2022/04/20 01:12:43;;;;;;;;;;;;;;;-2.83;84.64;98402.09;3223929;22;19970;-79
2022/04/20 01:13:58;;;;;;;;;;;;;;;-2.78;86.14;98391.97;3224130;22;19924;-79
2022/04/20 01:15:14;;;;;;;;;;;;;;;-2.78;85.91;98394.53;3224056;23;19928;-78
2022/04/20 01:16:30;;;;;;;;;;;;;;;-2.82;86.11;98385.88;3223874;22;20257;-79
2022/04/20 01:17:45;;;;;;;;;;;;;;;-2.80;87.13;98391.91;3223727;22;19930;-78
2022/04/20 01:19:01;;;;;;;;;;;;;;;-2.76;87.93;98393.75;3224054;23;19923;-78
2022/04/20 01:20:18;;;;;;;;;;;;;;;-2.82;88.28;98391.00;3223944;22;19939;-78
2022/04/20 01:21:33;;;;;;;;;;;;;;;-2.80;88.98;98389.34;3223937;22;19924;-77
2022/04/20 01:22:48;;;;;;;;;;;;;;;-2.75;89.22;98390.34;3223653;23;19919;-77
2022/04/20 01:24:04;;;;;;;;;;;;;;;-2.75;89.45;98389.47;3223801;23;19924;-78
2022/04/20 01:25:19;;;;;;;;;;;;;;;-2.77;89.76;98386.00;3223809;22;20384;-78
2022/04/20 01:26:35;;;;;;;;;;;;;;;-2.77;89.13;98386.88;3224031;22;19926;-78
2022/04/20 01:27:51;;;;;;;;;;;;;;;-2.76;89.43;98380.03;3224125;22;19931;-78
2022/04/20 01:29:07;;;;;;;;;;;;;;;-2.76;89.71;98378.38;3223759;23;19979;-78
2022/04/20 01:30:22;;;;;;;;;;;;;;;-2.73;89.66;98380.09;3224182;22;19931;-82
2022/04/20 01:31:38;;;;;;;;;;;;;;;-2.80;88.95;98376.53;3223843;23;20334;-78
2022/04/20 01:32:55;;;;;;;;;;;;;;;-2.97;87.93;98376.13;3223027;23;19928;-78
2022/04/20 01:34:10;;;;;;;;;;;;;;;-3.13;88.02;98380.00;3223163;23;19973;-78
2022/04/20 01:35:26;;;;;;;;;;;;;;;-3.08;88.87;98375.84;3222281;23;19923;-77
2022/04/20 01:36:41;;;;;;;;;;;;;;;-3.08;89.39;98388.66;3223343;23;19923;-79
2022/04/20 01:37:57;;;;;;;;;;;;;;;-3.13;89.58;98387.69;3223434;23;19924;-77
2022/04/20 01:39:12;;;;;;;;;;;;;;;-3.12;89.46;98386.84;3223773;22;20604;-79
2022/04/20 01:40:28;;;;;;;;;;;;;;;-2.86;90.72;98391.78;3223712;23;19993;-79
2022/04/20 01:41:43;;;;;;;;;;;;;;;-2.83;91.46;98394.41;3223395;22;19942;-80
2022/04/20 01:42:59;;;;;;;;;;;;;;;-2.79;91.20;98393.66;3224014;22;20298;-80
2022/04/20 01:44:14;;;;;;;;;;;;;;;-2.73;91.18;98392.91;3224005;22;19923;-78
2022/04/20 01:45:30;;;;;;;;;;;;;;;-2.54;90.19;98393.38;3223733;23;20321;-79
2022/04/20 01:46:46;;;;;;;;;;;;;;;-2.59;90.49;98389.00;3223546;22;19958;-79
2022/04/20 01:48:01;;;;;;;;;;;;;;;-2.66;90.48;98387.13;3224284;23;20327;-79
2022/04/20 01:49:17;;;;;;;;;;;;;;;-2.80;90.37;98389.34;3224059;22;20660;-77
2022/04/20 01:50:32;;;;;;;;;;;;;;;-2.96;91.06;98387.22;3223856;23;20117;-77
2022/04/20 01:51:50;;;;;;;;;;;;;;;-3.07;90.36;98382.72;3224134;23;19923;-79
2022/04/20 01:53:05;;;;;;;;;;;;;;;-3.08;89.43;98383.53;3223838;22;19931;-78
2022/04/20 01:54:21;;;;;;;;;;;;;;;-3.11;89.26;98380.91;3223657;23;19920;-78
2022/04/20 01:55:37;;;;;;;;;;;;;;;-3.14;88.98;98384.28;3223049;23;20418;-78
2022/04/20 01:56:53;;;;;;;;;;;;;;;-3.21;88.14;98384.03;3223633;22;19924;-78
2022/04/20 01:58:08;;;;;;;;;;;;;;;-3.23;87.49;98381.47;3223741;23;19959;-78
2022/04/20 01:59:24;;;;;;;;;;;;;;;-3.20;87.29;98375.56;3223596;23;19956;-77
2022/04/20 02:00:39;;;;;;;;;;;;;;;-3.13;87.96;98380.00;3223692;22;19924;-77
2022/04/20 02:03:28;;;;;;;;;;;;;;;-3.16;88.54;98370.53;3223492;23;20397;-78
2022/04/20 02:04:44;;;;;;;;;;;;;;;-3.13;88.27;98373.19;3223641;23;20057;-81
2022/04/20 02:05:59;;;;;;;;;;;;;;;-3.08;88.64;98375.84;3223503;22;19938;-79
2022/04/20 02:07:15;;;;;;;;;;;;;;;-3.05;88.48;98375.06;3223404;22;19965;-81
2022/04/20 02:08:30;;;;;;;;;;;;;;;-3.02;88.12;98380.25;3223567;22;20603;-80
2022/04/20 02:09:45;;;;;;;;;;;;;;;-3.03;86.84;98383.66;3223672;23;20326;-79
2022/04/20 02:11:01;;;;;;;;;;;;;;;-3.14;87.10;98384.28;3223535;23;19923;-79
2022/04/20 02:12:16;;;;;;;;;;;;;;;-3.17;87.00;98385.88;3223538;23;19930;-79
2022/04/20 02:13:32;;;;;;;;;;;;;;;-3.17;86.85;98391.00;3223950;23;19955;-82
2022/04/20 02:14:48;;;;;;;;;;;;;;;-3.29;86.68;98382.16;3223505;23;19923;-79
2022/04/20 02:16:03;;;;;;;;;;;;;;;-3.26;86.34;98389.91;3223750;22;19924;-78
2022/04/20 02:17:19;;;;;;;;;;;;;;;-3.21;86.69;98378.91;3223872;22;20335;-79
2022/04/20 02:18:34;;;;;;;;;;;;;;;-3.19;86.81;98382.41;3223528;23;19923;-78
2022/04/20 02:19:50;;;;;;;;;;;;;;;-3.21;86.90;98395.16;3222624;23;20409;-79
2022/04/20 02:21:05;;;;;;;;;;;;;;;-3.26;86.84;98392.47;3223133;23;19965;-80
2022/04/20 02:22:21;;;;;;;;;;;;;;;-3.36;87.04;98394.75;3223488;22;19923;-78
2022/04/20 02:23:36;;;;;;;;;;;;;;;-3.36;87.00;98394.75;3223268;23;19972;-79
2022/04/20 02:24:52;;;;;;;;;;;;;;;-3.30;86.84;98394.91;3223876;22;19923;-78
2022/04/20 02:26:08;;;;;;;;;;;;;;;-3.38;87.08;98393.84;3223343;22;20270;-79
2022/04/20 02:27:23;;;;;;;;;;;;;;;-3.44;87.96;98395.41;3223728;23;19953;-79
2022/04/20 02:28:39;;;;;;;;;;;;;;;-3.34;89.08;98395.66;3223407;23;19927;-78
2022/04/20 02:29:54;;;;;;;;;;;;;;;-3.23;90.70;98391.69;3223448;22;20000;-79
2022/04/20 02:31:10;;;;;;;;;;;;;;;-3.17;91.39;98394.41;3223633;22;19924;-78
2022/04/20 02:32:25;;;;;;;;;;;;;;;-3.15;92.18;98397.03;3223631;23;19923;-79
2022/04/20 02:33:41;;;;;;;;;;;;;;;-3.13;92.65;98392.81;3223379;23;19946;-78
2022/04/20 02:34:56;;;;;;;;;;;;;;;-3.14;92.42;98396.19;3223305;23;20003;-79
2022/04/20 02:36:11;;;;;;;;;;;;;;;-3.12;92.70;98397.97;3223657;23;19931;-79
2022/04/20 02:37:27;;;;;;;;;;;;;;;-2.87;93.66;98398.56;3222738;23;19957;-78
2022/04/20 02:38:43;;;;;;;;;;;;;;;-2.84;94.30;98402.91;3222397;23;19958;-79
2022/04/20 02:40:00;;;;;;;;;;;;;;;-2.77;94.69;98397.13;3224011;22;20465;-78
2022/04/20 02:41:15;;;;;;;;;;;;;;;-2.73;93.94;98396.38;3223942;22;19938;-79
2022/04/20 02:42:31;;;;;;;;;;;;;;;-2.70;94.25;98399.00;3223139;22;19965;-79
2022/04/20 02:43:48;;;;;;;;;;;;;;;-2.68;94.12;98398.16;3223382;23;19924;-78
2022/04/20 02:45:03;;;;;;;;;;;;;;;-2.72;93.35;98400.66;3223116;22;19930;-78
2022/04/20 02:46:19;;;;;;;;;;;;;;;-2.75;92.84;98399.72;3223439;22;19924;-80
2022/04/20 02:47:34;;;;;;;;;;;;;;;-2.74;92.86;98406.56;3223242;23;19927;-77
2022/04/20 02:48:50;;;;;;;;;;;;;;;-2.74;92.96;98401.44;3223386;22;20041;-78
2022/04/20 02:50:05;;;;;;;;;;;;;;;-2.72;93.38;98402.38;3223383;22;19924;-77
2022/04/20 02:51:21;;;;;;;;;;;;;;;-2.72;93.46;98394.69;3223421;22;19931;-78
2022/04/20 02:52:36;;;;;;;;;;;;;;;-2.72;93.66;98399.81;3223613;23;20306;-78
2022/04/20 02:53:52;;;;;;;;;;;;;;;-2.73;93.79;98400.63;3223278;23;19974;-78
2022/04/20 02:55:07;;;;;;;;;;;;;;;-2.66;93.85;98397.38;3223562;23;19920;-78
2022/04/20 02:56:23;;;;;;;;;;;;;;;-2.65;93.63;98393.13;3223123;22;19935;-78
2022/04/20 02:57:38;;;;;;;;;;;;;;;-2.68;93.86;98399.06;3223650;23;19931;-78
2022/04/20 02:58:54;;;;;;;;;;;;;;;-2.70;93.87;98399.00;3223665;22;19928;-78
2022/04/20 03:00:09;;;;;;;;;;;;;;;-2.59;93.45;98398.41;3223266;22;19931;-78
2022/04/20 03:01:26;;;;;;;;;;;;;;;-2.44;93.27;98401.31;3223200;22;19977;-78
2022/04/20 03:02:42;;;;;;;;;;;;;;;-2.37;92.80;98407.47;3223232;22;19923;-78
2022/04/20 03:03:58;;;;;;;;;;;;;;;-2.41;92.99;98406.50;3223208;22;20315;-79
2022/04/20 03:05:14;;;;;;;;;;;;;;;-2.45;92.92;98403.84;3223328;22;20333;-79
2022/04/20 03:06:29;;;;;;;;;;;;;;;-2.34;92.69;98397.25;3222782;23;19923;-78
2022/04/20 03:07:45;;;;;;;;;;;;;;;-2.39;92.62;98403.13;3223491;23;19928;-79
2022/04/20 03:09:00;;;;;;;;;;;;;;;-2.45;92.99;98401.28;3223442;22;20024;-79
2022/04/20 03:10:15;;;;;;;;;;;;;;;-2.47;93.27;98398.69;3223747;22;19924;-78
2022/04/20 03:11:31;;;;;;;;;;;;;;;-2.45;92.98;98397.03;3223219;23;19924;-79
2022/04/20 03:12:46;;;;;;;;;;;;;;;-2.38;93.41;98397.16;3223518;22;19923;-78
2022/04/20 03:14:02;;;;;;;;;;;;;;;-2.48;93.69;98402.09;3223331;22;20255;-78
2022/04/20 03:15:17;;;;;;;;;;;;;;;-2.49;93.85;98402.91;3223376;22;19958;-78
2022/04/20 03:16:33;;;;;;;;;;;;;;;-2.48;93.95;98402.09;3223273;22;19927;-77
2022/04/20 03:17:48;;;;;;;;;;;;;;;-2.50;93.99;98393.50;3223357;23;19923;-79
2022/04/20 03:19:03;;;;;;;;;;;;;;;-2.52;94.04;98395.13;3223385;23;19943;-78
2022/04/20 03:20:19;;;;;;;;;;;;;;;-2.52;94.33;98405.38;3223299;23;20246;-80
2022/04/20 03:21:34;;;;;;;;;;;;;;;-2.52;94.21;98400.25;3221731;22;20030;-77
2022/04/20 03:22:50;;;;;;;;;;;;;;;-2.50;94.36;98402.88;3223037;22;19926;-78
2022/04/20 03:24:05;;;;;;;;;;;;;;;-2.55;94.68;98402.75;3222693;23;19970;-78
2022/04/20 03:25:21;;;;;;;;;;;;;;;-2.67;94.45;98405.03;3223193;22;20422;-79
2022/04/20 03:26:36;;;;;;;;;;;;;;;-2.59;95.48;98406.94;3223245;23;20759;-82
2022/04/20 03:27:52;;;;;;;;;;;;;;;-2.50;95.23;98410.56;3222972;23;20452;-78
2022/04/20 03:29:07;;;;;;;;;;;;;;;-2.35;95.38;98410.91;3223163;23;20385;-78
2022/04/20 03:30:22;;;;;;;;;;;;;;;-2.20;94.21;98417.22;3223267;22;20301;-79
2022/04/20 03:31:38;;;;;;;;;;;;;;;-2.21;93.83;98415.50;3223456;23;19947;-78
2022/04/20 03:32:53;;;;;;;;;;;;;;;-2.24;93.38;98421.41;3223132;23;20806;-79
2022/04/20 03:34:09;;;;;;;;;;;;;;;-2.23;93.43;98409.47;3221921;22;19923;-78
2022/04/20 03:35:24;;;;;;;;;;;;;;;-2.32;93.16;98418.69;3222768;23;19999;-80
2022/04/20 03:36:40;;;;;;;;;;;;;;;-2.27;93.50;98419.66;3222781;22;20266;-80
2022/04/20 03:37:56;;;;;;;;;;;;;;;-2.25;93.33;98418.84;3222982;22;19923;-79
2022/04/20 03:39:11;;;;;;;;;;;;;;;-2.35;93.14;98412.63;3222944;22;19919;-79
2022/04/20 03:40:27;;;;;;;;;;;;;;;-2.42;93.54;98414.19;3222844;23;20002;-79
2022/04/20 03:41:42;;;;;;;;;;;;;;;-2.45;93.84;98419.22;3223545;23;20346;-78
2022/04/20 03:42:58;;;;;;;;;;;;;;;-2.46;93.46;98420.94;3223274;22;20338;-78
2022/04/20 03:44:13;;;;;;;;;;;;;;;-2.52;93.82;98420.78;3222884;23;19982;-78
2022/04/20 03:45:28;;;;;;;;;;;;;;;-2.54;94.25;98419.03;3223404;22;20499;-78
2022/04/20 03:46:44;;;;;;;;;;;;;;;-2.61;94.31;98421.41;3222994;23;20009;-79
2022/04/20 03:47:59;;;;;;;;;;;;;;;-2.61;94.49;98412.88;3223234;22;19923;-79
2022/04/20 03:49:15;;;;;;;;;;;;;;;-2.60;94.24;98410.34;3223105;23;20315;-78
2022/04/20 03:50:30;;;;;;;;;;;;;;;-2.58;94.55;98413.81;3223139;23;19923;-78
2022/04/20 03:51:46;;;;;;;;;;;;;;;-2.60;94.46;98412.06;3223196;22;19924;-78
2022/04/20 03:53:02;;;;;;;;;;;;;;;-2.55;94.51;98420.72;3223496;22;20867;-79
2022/04/20 03:54:17;;;;;;;;;;;;;;;-2.54;94.74;98421.59;3222946;23;20290;-79
2022/04/20 03:55:33;;;;;;;;;;;;;;;-2.56;94.70;98417.28;3222749;23;20003;-80
2022/04/20 03:57:03;;;;;;;;;;;;;;;-2.56;94.87;98416.41;3223540;23;19994;-79
2022/04/20 03:58:18;;;;;;;;;;;;;;;-2.60;94.33;98417.16;3223443;22;20305;-80
2022/04/20 03:59:35;;;;;;;;;;;;;;;-2.62;94.62;98416.28;3223007;23;20374;-79
2022/04/20 04:00:51;;;;;;;;;;;;;;;-2.60;94.61;98414.59;3222913;22;19930;-79
2022/04/20 04:02:07;;;;;;;;;;;;;;;-2.59;94.28;98419.75;3222668;22;19972;-83
2022/04/20 04:03:23;;;;;;;;;;;;;;;-2.59;94.14;98417.19;3222943;22;19928;-79
2022/04/20 04:04:38;;;;;;;;;;;;;;;-2.60;94.01;98412.06;3222891;22;19924;-81
2022/04/20 04:05:53;;;;;;;;;;;;;;;-2.63;94.63;98419.66;3223042;23;19945;-79
2022/04/20 04:07:09;;;;;;;;;;;;;;;-2.59;94.43;98416.34;3222989;23;19927;-79
2022/04/20 04:08:24;;;;;;;;;;;;;;;-2.63;94.66;98422.22;3223191;23;19927;-79
2022/04/20 04:09:40;;;;;;;;;;;;;;;-2.66;94.72;98424.69;3223029;23;20390;-79
2022/04/20 04:10:56;;;;;;;;;;;;;;;-2.63;95.13;98425.66;3223184;22;20746;-81
2022/04/20 04:12:12;;;;;;;;;;;;;;;-2.58;94.98;98428.31;3223115;22;19943;-79
2022/04/20 04:13:27;;;;;;;;;;;;;;;-2.55;95.10;98428.41;3222841;23;19920;-79
2022/04/20 04:14:44;;;;;;;;;;;;;;;-2.53;94.44;98426.72;3223378;22;20397;-80
2022/04/20 04:15:59;;;;;;;;;;;;;;;-2.52;94.56;98422.47;3222503;23;19998;-79
2022/04/20 04:17:14;;;;;;;;;;;;;;;-2.51;94.38;98432.78;3222690;23;20697;-81
2022/04/20 04:18:30;;;;;;;;;;;;;;;-2.49;nan;98427.69;3223288;23;19924;-79
2022/04/20 04:19:46;;;;;;;;;;;;;;;-2.52;94.74;98433.59;3222940;22;20050;-85
2022/04/20 04:21:01;;;;;;;;;;;;;;;-2.52;95.28;98432.75;3223171;22;19931;-80
2022/04/20 04:22:17;;;;;;;;;;;;;;;-2.54;94.94;98435.25;3222942;23;19920;-79
2022/04/20 04:23:32;;;;;;;;;;;;;;;-2.53;95.21;98431.84;3222871;23;19919;-79
2022/04/20 04:24:49;;;;;;;;;;;;;;;-2.51;95.20;98437.91;3222763;23;19919;-79
2022/04/20 04:26:04;;;;;;;;;;;;;;;-2.47;94.83;98437.16;3222792;22;19931;-78
2022/04/20 04:27:21;;;;;;;;;;;;;;;-2.42;94.68;98440.69;3222757;22;19924;-79
2022/04/20 04:28:36;;;;;;;;;;;;;;;-2.41;94.63;98441.56;3222910;22;19924;-79
2022/04/20 04:29:52;;;;;;;;;;;;;;;-2.36;94.79;98436.53;3222783;23;19923;-79
2022/04/20 04:31:07;;;;;;;;;;;;;;;-2.33;94.72;98442.59;3222873;22;20006;-78
2022/04/20 04:32:23;;;;;;;;;;;;;;;-2.31;94.54;98437.50;3222640;22;19920;-78
2022/04/20 04:33:38;;;;;;;;;;;;;;;-2.32;94.32;98441.75;3222018;23;19924;-78
2022/04/20 04:34:54;;;;;;;;;;;;;;;-2.25;94.00;98447.91;3222094;23;19943;-79
2022/04/20 04:36:09;;;;;;;;;;;;;;;-2.14;93.59;98437.91;3222777;23;20331;-79
2022/04/20 04:37:24;;;;;;;;;;;;;;;-2.13;92.89;98444.78;3222580;23;20627;-82
2022/04/20 04:38:40;;;;;;;;;;;;;;;-2.24;92.91;98439.38;3222888;22;19954;-83
2022/04/20 04:39:56;;;;;;;;;;;;;;;-2.24;93.00;98448.78;3222643;23;19923;-84
2022/04/20 04:41:12;;;;;;;;;;;;;;;-2.26;93.26;98448.72;3222745;23;19979;-80
2022/04/20 04:42:27;;;;;;;;;;;;;;;-2.28;92.91;98445.28;3223117;22;19923;-79
2022/04/20 04:43:43;;;;;;;;;;;;;;;-2.34;93.31;98445.13;3222700;22;19923;-79
2022/04/20 04:48:36;;;;;;;;;;;;;;;-2.24;93.08;98446.22;3222608;23;20357;-79
2022/04/20 04:49:42;;;;;;;;;;;;;;;-2.16;92.64;98435.28;3222713;23;19994;-79
2022/04/20 04:50:57;;;;;;;;;;;;;;;-2.18;93.12;98444.66;3222391;22;19927;-78
2022/04/20 04:52:13;;;;;;;;;;;;;;;-2.25;93.08;98437.63;3223013;23;20030;-79
2022/04/20 04:53:28;;;;;;;;;;;;;;;-2.28;92.97;98441.03;3220587;23;20591;-78
2022/04/20 04:54:44;;;;;;;;;;;;;;;-2.27;93.00;98440.19;3222108;23;19932;-80
2022/04/20 04:55:59;;;;;;;;;;;;;;;-2.25;93.37;98441.91;3222637;22;19959;-78
2022/04/20 04:57:15;;;;;;;;;;;;;;;-2.21;93.69;98439.47;3222598;23;19951;-78
2022/04/20 04:58:30;;;;;;;;;;;;;;;-2.24;93.35;98446.22;3222346;22;19924;-79
2022/04/20 04:59:46;;;;;;;;;;;;;;;-2.24;93.98;98438.53;3222417;23;19926;-79
2022/04/20 05:01:01;;;;;;;;;;;;;;;-2.27;93.67;98444.44;3222533;23;19926;-78
2022/04/20 05:02:16;;;;;;;;;;;;;;;-2.24;93.52;98441.09;3220842;23;19930;-79
2022/04/20 05:03:32;;;;;;;;;;;;;;;-2.15;92.97;98443.88;3220867;23;19920;-79
2022/04/20 05:04:47;;;;;;;;;;;;;;;-2.07;92.41;98441.47;3222441;23;19927;-79
2022/04/20 05:06:03;;;;;;;;;;;;;;;-2.06;92.05;98444.06;3222143;23;19931;-80
2022/04/20 05:07:18;;;;;;;;;;;;;;;-2.15;92.25;98442.16;3222370;23;19930;-80
2022/04/20 05:08:33;;;;;;;;;;;;;;;-2.17;92.55;98443.81;3222077;23;19920;-79
2022/04/20 05:09:49;;;;;;;;;;;;;;;-2.02;92.14;98451.03;3222392;22;19930;-79
2022/04/20 05:11:04;;;;;;;;;;;;;;;-1.91;91.98;98447.81;3222941;22;20003;-80
2022/04/20 05:12:20;;;;;;;;;;;;;;;-1.82;90.82;98439.44;3222535;23;19939;-79
2022/04/20 05:13:35;;;;;;;;;;;;;;;-1.78;90.77;98444.66;3222863;22;19946;-79
2022/04/20 05:14:51;;;;;;;;;;;;;;;-1.81;90.42;98449.75;3222970;23;19933;-82
2022/04/20 05:16:06;;;;;;;;;;;;;;;-1.91;91.16;98446.13;3222554;23;19923;-79
2022/04/20 05:17:21;;;;;;;;;;;;;;;-1.99;91.36;98448.50;3222764;22;19970;-80
2022/04/20 05:18:37;;;;;;;;;;;;;;;-2.04;91.77;98451.81;3223008;22;20338;-82
2022/04/20 05:19:52;;;;;;;;;;;;;;;-2.13;92.56;98450.75;3223141;22;19920;-78
2022/04/20 05:21:08;;;;;;;;;;;;;;;-2.16;92.58;98453.25;3223272;23;20002;-78
2022/04/20 05:22:25;;;;;;;;;;;;;;;-2.18;93.03;98443.78;3222870;22;19924;-79
2022/04/20 05:23:40;;;;;;;;;;;;;;;-2.18;93.16;98443.78;3222558;22;20405;-78
2022/04/20 05:24:56;;;;;;;;;;;;;;;-2.19;93.13;98449.75;3222565;23;20280;-79
2022/04/20 05:26:11;;;;;;;;;;;;;;;-2.18;93.11;98447.22;3222456;22;19950;-78
2022/04/20 05:27:26;;;;;;;;;;;;;;;-2.18;93.39;98448.91;3223194;23;20393;-80
2022/04/20 05:28:42;;;;;;;;;;;;;;;-2.19;93.19;98448.06;3222470;23;20243;-79
2022/04/20 05:29:57;;;;;;;;;;;;;;;-2.21;93.86;98442.03;3222905;23;19924;-80
2022/04/20 05:31:13;;;;;;;;;;;;;;;-2.23;93.91;98445.38;3222593;22;19926;-78
2022/04/20 05:32:28;;;;;;;;;;;;;;;-2.22;93.83;98448.00;3223049;23;19931;-79
2022/04/20 05:33:44;;;;;;;;;;;;;;;-2.20;93.59;98442.88;3222238;23;19926;-80
2022/04/20 05:34:59;;;;;;;;;;;;;;;-2.15;93.85;98438.75;3222538;22;19930;-79
2022/04/20 05:36:15;;;;;;;;;;;;;;;-2.09;93.79;98441.44;3222506;22;20443;-78
2022/04/20 05:42:16;;;;;;;;;;;;;;;-1.76;91.04;98429.31;3227479;23;20262;-86
2022/04/20 05:43:31;;;;;;;;;;;;;;;-1.67;90.34;98437.22;3222647;22;19923;-83
2022/04/20 05:44:47;;;;;;;;;;;;;;;-1.62;91.14;98434.72;3222505;23;20322;-82
2022/04/20 05:46:03;;;;;;;;;;;;;;;-1.61;91.39;98439.00;3222930;22;19924;-82
2022/04/20 05:47:18;;;;;;;;;;;;;;;-1.51;91.46;98443.50;3223761;22;19924;-81
2022/04/20 05:48:34;;;;;;;;;;;;;;;-1.47;91.61;98444.44;3223345;23;19927;-81
2022/04/20 05:49:49;;;;;;;;;;;;;;;-1.42;91.28;98438.56;3223498;23;19923;-79
2022/04/20 05:51:05;;;;;;;;;;;;;;;-1.42;90.87;98437.69;3223661;23;19927;-79
2022/04/20 05:52:20;;;;;;;;;;;;;;;-1.43;91.35;98441.97;3223517;22;19973;-80
2022/04/20 05:53:36;;;;;;;;;;;;;;;-1.46;91.47;98439.34;3223370;22;19920;-79
2022/04/20 05:54:51;;;;;;;;;;;;;;;-1.44;91.69;98444.50;3223592;22;19930;-81
2022/04/20 05:56:07;;;;;;;;;;;;;;;-1.45;91.96;98442.78;3223007;22;19942;-82
2022/04/20 05:57:23;;;;;;;;;;;;;;;-1.43;92.08;98438.53;3223623;22;19927;-80
2022/04/20 05:58:38;;;;;;;;;;;;;;;-1.39;91.43;98442.91;3223374;22;19954;-79
2022/04/20 05:59:54;;;;;;;;;;;;;;;-1.36;90.69;98437.84;3223428;23;19935;-80
2022/04/20 06:01:09;;;;;;;;;;;;;;;-1.31;90.26;98441.34;3223628;22;19924;-81
2022/04/20 06:02:25;;;;;;;;;;;;;;;-1.28;90.96;98443.97;3223721;22;19927;-79
2022/04/20 06:03:40;;;;;;;;;;;;;;;-1.20;90.77;98441.53;3223722;22;19924;-81
2022/04/20 06:04:56;;;;;;;;;;;;;;;-1.06;91.11;98433.22;3223874;22;19930;-79
2022/04/20 06:06:12;;;;;;;;;;;;;;;-0.98;90.42;98435.94;3223950;23;19920;-80
2022/04/20 06:07:29;;;;;;;;;;;;;;;-0.91;89.34;98435.22;3224004;22;19975;-80
2022/04/20 06:08:44;;;;;;;;;;;;;;;-0.88;88.94;98432.72;3223725;22;19928;-80
2022/04/20 06:10:00;;;;;;;;;;;;;;;-0.82;89.73;98427.69;3223881;23;19950;-79
2022/04/20 06:11:15;;;;;;;;;;;;;;;-0.67;89.59;98423.66;3223533;22;19942;-79
2022/04/20 06:12:31;;;;;;;;;;;;;;;-0.83;89.90;98425.09;3224039;22;20389;-78
2022/04/20 06:13:46;;;;;;;;;;;;;;;-0.82;89.59;98426.81;3223411;22;19977;-78
2022/04/20 06:15:02;;;;;;;;;;;;;;;-0.74;90.00;98418.38;3223741;23;19966;-82
2022/04/20 06:16:18;;;;;;;;;;;;;;;-0.59;89.89;98424.63;3223397;22;19924;-78
2022/04/20 06:17:33;;;;;;;;;;;;;;;-0.51;89.42;98412.75;3224058;22;19919;-79
2022/04/20 06:18:48;;;;;;;;;;;;;;;-0.42;89.16;98414.63;3223626;22;19923;-78
2022/04/20 06:20:05;;;;;;;;;;;;;;;-0.45;89.48;98412.84;3223709;22;20115;-81
2022/04/20 06:21:21;;;;;;;;;;;;;;;-0.39;89.36;98408.66;3224234;22;20672;-80
2022/04/20 06:22:36;;;;;;;;;;;;;;;-0.35;88.87;98415.56;3223832;23;19970;-79
2022/04/20 06:23:51;;;;;;;;;;;;;;;-0.36;89.53;98413.84;3224007;23;19927;-79
2022/04/20 06:25:08;;;;;;;;;;;;;;;-0.33;89.05;98413.88;3223846;23;19926;-80
2022/04/20 06:26:24;;;;;;;;;;;;;;;-0.37;90.39;98402.69;3223679;22;19927;-78
2022/04/20 06:27:39;;;;;;;;;;;;;;;-0.31;89.34;98405.34;3223947;23;19969;-83
2022/04/20 06:28:54;;;;;;;;;;;;;;;-0.24;88.64;98411.47;3223383;23;19927;-78
2022/04/20 06:30:10;;;;;;;;;;;;;;;-0.12;88.45;98412.50;3223893;23;19923;-80
2022/04/20 06:31:26;;;;;;;;;;;;;;;-0.10;87.93;98406.50;3223708;22;20587;-79
2022/04/20 06:32:41;;;;;;;;;;;;;;;-0.08;88.02;98404.81;3223892;23;19973;-79
2022/04/20 06:33:59;;;;;;;;;;;;;;;-0.04;88.22;98405.72;3223216;23;20370;-79
2022/04/20 06:35:15;;;;;;;;;;;;;;;-0.03;88.84;98395.47;3223599;22;19974;-80
2022/04/20 06:36:30;;;;;;;;;;;;;;;0.09;89.18;98397.34;3223393;22;20306;-79
2022/04/20 06:37:46;;;;;;;;;;;;;;;0.18;87.99;98401.72;3223534;23;19985;-80
2022/04/20 06:39:01;;;;;;;;;;;;;;;0.24;87.97;98400.94;3223492;23;19923;-79
2022/04/20 06:40:16;;;;;;;;;;;;;;;0.34;88.05;98402.81;3223787;23;20349;-79
2022/04/20 06:41:32;;;;;;;;;;;;;;;0.39;87.94;98402.88;3223748;23;19930;-79
2022/04/20 06:42:47;;;;;;;;;;;;;;;0.41;87.86;98394.28;3223918;23;19919;-78
2022/04/20 06:44:03;;;;;;;;;;;;;;;0.43;87.43;98402.03;3223554;23;20389;-79